Jeff, Kentucky
Current Conditions -  °F | °C
As of 1:15 PM on Tuesday 21 Oct 2014 (Local Time) from KI35 Reporting Station
Overcast Overcast  
Wind Chill: 59°   Ceiling: 5000
Heat Index: 59°   Visibility: 10mi
Dew Point: 39°   Wind: 10mph
Humidity: 48%   Direction: 320°NW
Pressure: 30.02"   Gusts: 16mph
Location:  37.21°N, 83.13°W
Report Text: KI35 211715Z AUTO 32009G14KT 10SM SCT044 OVC050 15/04 A3002 RMK AO1
Loading
Personal Weather Stations






























Interactive Weather Map
Tropical Storm Tracking
New forecast layout! Learn more

10-Day Weather Forecast

Advertisements
Track Severe Weather on mobile